Time;durP1;ratioP1;P1;durP2;ratioP2;P2;SDS_P1;SDS_P2;PMS_P1;PMS_P2;Temp;Humidity;BMP_temperature;BMP_pressure;BME280_temperature;BME280_humidity;BME280_pressure;Samples;Min_cycle;Max_cycle;Signal;HPM_P1;HPM_P2
2023/06/15 00:01:33;;;;;;;3.83;3.37;;;;;;;;;;4937248;29;20219;-73
2023/06/15 00:04:39;;;;;;;3.73;3.30;;;;;;;;;;4936973;29;20667;-74
2023/06/15 00:07:43;;;;;;;4.57;3.60;;;;;;;;;;4937376;29;20219;-74
2023/06/15 00:10:48;;;;;;;4.57;3.33;;;;;;;;;;4936512;29;20525;-74
2023/06/15 00:13:52;;;;;;;6.33;4.40;;;;;;;;;;4936699;29;20193;-74
2023/06/15 00:16:57;;;;;;;5.40;3.63;;;;;;;;;;4937332;29;20528;-74
2023/06/15 00:20:04;;;;;;;5.30;3.60;;;;;;;;;;4937446;29;20184;-74
2023/06/15 00:23:08;;;;;;;4.43;3.37;;;;;;;;;;4937380;29;20215;-74
2023/06/15 00:26:12;;;;;;;6.00;3.50;;;;;;;;;;4937101;29;20184;-73
2023/06/15 00:29:17;;;;;;;6.23;4.10;;;;;;;;;;4936394;29;20544;-74
2023/06/15 00:32:21;;;;;;;5.60;3.70;;;;;;;;;;4936238;29;20215;-74
2023/06/15 00:35:25;;;;;;;4.17;3.77;;;;;;;;;;4937142;29;20184;-74
2023/06/15 00:38:29;;;;;;;4.43;3.87;;;;;;;;;;4936891;29;20181;-73
2023/06/15 00:41:43;;;;;;;4.70;3.87;;;;;;;;;;4936180;29;20215;-74
2023/06/15 00:44:47;;;;;;;8.37;3.83;;;;;;;;;;4946900;29;20220;-74
2023/06/15 00:47:52;;;;;;;4.57;3.70;;;;;;;;;;4936225;29;20188;-74
2023/06/15 00:50:56;;;;;;;9.60;3.93;;;;;;;;;;4936623;29;20532;-74
2023/06/15 00:54:02;;;;;;;4.03;3.63;;;;;;;;;;4936135;29;20188;-74
2023/06/15 00:57:08;;;;;;;5.70;3.33;;;;;;;;;;4936053;29;20184;-73
2023/06/15 01:00:14;;;;;;;3.90;3.50;;;;;;;;;;4946725;29;20184;-73
2023/06/15 01:03:20;;;;;;;4.37;3.60;;;;;;;;;;4935991;29;20188;-74
2023/06/15 01:06:31;;;;;;;4.60;3.60;;;;;;;;;;4935713;29;20192;-74
2023/06/15 01:09:37;;;;;;;4.10;3.70;;;;;;;;;;4935807;29;20204;-74
2023/06/15 01:12:44;;;;;;;4.70;3.70;;;;;;;;;;4936068;29;20219;-74
2023/06/15 01:15:52;;;;;;;3.77;3.27;;;;;;;;;;4945850;28;20204;-74
2023/06/15 01:18:57;;;;;;;5.27;3.77;;;;;;;;;;4936542;29;20184;-74
2023/06/15 01:22:12;;;;;;;4.03;3.63;;;;;;;;;;4946341;29;20216;-74
2023/06/15 01:25:39;;;;;;;4.20;3.27;;;;;;;;;;4935314;29;20675;-74
2023/06/15 01:28:46;;;;;;;5.43;4.10;;;;;;;;;;4935589;29;20195;-73
2023/06/15 01:31:52;;;;;;;4.87;3.93;;;;;;;;;;4935319;29;20216;-73
2023/06/15 01:34:56;;;;;;;5.33;3.97;;;;;;;;;;4935499;29;20628;-73
2023/06/15 01:38:00;;;;;;;3.80;3.47;;;;;;;;;;4935729;29;20180;-74
2023/06/15 01:41:08;;;;;;;4.60;3.43;;;;;;;;;;4935343;29;20185;-74
2023/06/15 01:44:12;;;;;;;6.73;4.03;;;;;;;;;;4935891;29;20204;-74
2023/06/15 01:47:17;;;;;;;5.53;4.20;;;;;;;;;;4935708;29;20184;-73
2023/06/15 01:50:24;;;;;;;7.30;4.17;;;;;;;;;;4935052;29;20184;-73
2023/06/15 01:53:28;;;;;;;4.03;3.63;;;;;;;;;;4935319;29;20200;-73
2023/06/15 01:56:32;;;;;;;8.17;4.13;;;;;;;;;;4924460;29;20184;-73
2023/06/15 01:59:36;;;;;;;4.90;3.60;;;;;;;;;;4924115;29;20203;-73
2023/06/15 02:02:40;;;;;;;5.17;3.90;;;;;;;;;;4935001;29;20224;-73
2023/06/15 02:05:44;;;;;;;6.13;4.07;;;;;;;;;;4946021;29;20212;-74
2023/06/15 02:08:52;;;;;;;4.60;3.80;;;;;;;;;;4934978;29;20211;-73
2023/06/15 02:11:57;;;;;;;8.40;3.73;;;;;;;;;;4935659;29;20227;-73
2023/06/15 02:15:03;;;;;;;5.23;3.90;;;;;;;;;;4924152;29;20196;-73
2023/06/15 02:18:13;;;;;;;4.30;3.80;;;;;;;;;;4935186;29;20180;-74
2023/06/15 02:21:16;;;;;;;5.43;3.87;;;;;;;;;;4935238;29;20224;-73
2023/06/15 02:24:21;;;;;;;4.40;4.00;;;;;;;;;;4945775;29;20640;-74
2023/06/15 02:27:25;;;;;;;4.47;4.07;;;;;;;;;;4937875;29;20188;-73
2023/06/15 02:30:29;;;;;;;5.03;4.13;;;;;;;;;;4938439;29;20180;-73
2023/06/15 02:33:33;;;;;;;4.73;4.13;;;;;;;;;;4939183;29;20184;-73
2023/06/15 02:36:37;;;;;;;4.90;4.40;;;;;;;;;;4949320;29;20184;-73
2023/06/15 02:39:41;;;;;;;5.33;4.40;;;;;;;;;;4916783;29;20188;-73
2023/06/15 02:42:45;;;;;;;4.90;3.97;;;;;;;;;;4949289;29;20215;-73
2023/06/15 02:45:50;;;;;;;6.23;4.20;;;;;;;;;;4938061;29;20212;-73
2023/06/15 02:48:56;;;;;;;5.07;4.17;;;;;;;;;;4938380;29;20185;-73
2023/06/15 02:52:01;;;;;;;5.07;4.13;;;;;;;;;;4938017;29;20727;-73
2023/06/15 02:55:07;;;;;;;4.80;4.17;;;;;;;;;;4938276;29;20176;-73
2023/06/15 02:58:13;;;;;;;4.87;4.13;;;;;;;;;;4948937;29;20204;-73
2023/06/15 03:01:40;;;;;;;10.23;4.70;;;;;;;;;;4948873;29;20216;-73
2023/06/15 03:04:50;;;;;;;5.47;4.10;;;;;;;;;;4937752;29;20706;-73
2023/06/15 03:07:59;;;;;;;5.80;4.27;;;;;;;;;;4937636;29;20203;-73
2023/06/15 03:11:19;;;;;;;5.60;4.63;;;;;;;;;;4929140;29;20220;-73
2023/06/15 03:14:24;;;;;;;5.67;4.50;;;;;;;;;;4937702;29;20188;-73
2023/06/15 03:17:32;;;;;;;4.93;4.27;;;;;;;;;;4937887;29;20179;-73
2023/06/15 03:20:37;;;;;;;4.97;4.27;;;;;;;;;;4948686;29;20201;-73
2023/06/15 03:23:42;;;;;;;5.10;4.27;;;;;;;;;;4926353;29;20196;-74
2023/06/15 03:26:47;;;;;;;5.23;4.17;;;;;;;;;;4937402;29;20173;-73
2023/06/15 03:29:52;;;;;;;5.37;4.17;;;;;;;;;;4948372;29;20184;-73
2023/06/15 03:32:57;;;;;;;5.63;4.43;;;;;;;;;;4938220;29;20556;-73
2023/06/15 03:36:03;;;;;;;5.63;4.43;;;;;;;;;;4937994;29;20188;-73
2023/06/15 03:39:09;;;;;;;5.23;4.47;;;;;;;;;;4947426;28;20667;-73
2023/06/15 03:42:15;;;;;;;7.07;3.93;;;;;;;;;;4948215;29;20223;-73
2023/06/15 03:45:19;;;;;;;8.87;4.97;;;;;;;;;;4948025;29;20208;-73
2023/06/15 03:48:24;;;;;;;4.70;4.23;;;;;;;;;;4948665;29;20200;-73
2023/06/15 03:51:28;;;;;;;5.07;4.57;;;;;;;;;;4936854;29;20228;-73
2023/06/15 03:54:32;;;;;;;5.37;4.60;;;;;;;;;;4947780;29;20204;-73
2023/06/15 03:57:37;;;;;;;7.77;4.70;;;;;;;;;;4937005;29;20200;-73
2023/06/15 04:00:43;;;;;;;5.03;4.43;;;;;;;;;;4936674;29;20196;-73
2023/06/15 04:03:47;;;;;;;6.30;5.67;;;;;;;;;;4947983;29;20180;-73
2023/06/15 04:06:53;;;;;;;5.63;5.03;;;;;;;;;;4947539;29;20219;-73
2023/06/15 04:23:55;;;;;;;5.10;4.60;;;;;;;;;;4940591;29;20223;-86
2023/06/15 04:27:54;;;;;;;;;;;;;;;;;;;;;
2023/06/15 04:36:48;;;;;;;4.93;4.37;;;;;;;;;;4927018;29;20204;-86
2023/06/15 04:40:11;;;;;;;5.93;4.90;;;;;;;;;;4967944;23;20266;-87
2023/06/15 04:44:08;;;;;;;8.37;5.20;;;;;;;;;;4964341;29;20627;-87
2023/06/15 04:52:20;;;;;;;8.37;4.80;;;;;;;;;;4953891;29;20181;-87
2023/06/15 05:09:21;;;;;;;10.47;5.40;;;;;;;;;;4969131;23;20227;-70
2023/06/15 05:12:28;;;;;;;9.40;5.00;;;;;;;;;;4935489;29;20580;-70
2023/06/15 05:15:32;;;;;;;5.93;4.60;;;;;;;;;;4946502;29;20176;-70
2023/06/15 05:18:37;;;;;;;8.67;5.10;;;;;;;;;;4946514;29;20180;-70
2023/06/15 05:21:42;;;;;;;9.97;5.00;;;;;;;;;;4946379;29;20227;-69
2023/06/15 05:24:46;;;;;;;8.23;4.73;;;;;;;;;;4946597;29;20659;-70
2023/06/15 05:27:50;;;;;;;8.60;4.87;;;;;;;;;;4935303;29;20675;-69
2023/06/15 05:30:55;;;;;;;9.33;5.40;;;;;;;;;;4946526;29;20220;-70
2023/06/15 05:34:00;;;;;;;7.23;5.27;;;;;;;;;;4946288;29;20180;-70
2023/06/15 05:37:04;;;;;;;10.30;5.30;;;;;;;;;;4935184;29;20176;-70
2023/06/15 05:40:13;;;;;;;7.17;5.53;;;;;;;;;;4946356;29;20195;-69
2023/06/15 05:43:19;;;;;;;6.07;5.23;;;;;;;;;;4946084;29;20180;-70
2023/06/15 05:46:23;;;;;;;9.27;5.43;;;;;;;;;;4945671;29;20212;-71
2023/06/15 05:49:27;;;;;;;6.07;5.20;;;;;;;;;;4935774;29;20685;-70
2023/06/15 05:52:31;;;;;;;8.03;5.47;;;;;;;;;;4946588;29;20219;-70
2023/06/15 05:55:36;;;;;;;6.00;5.17;;;;;;;;;;4935066;29;20184;-70
2023/06/15 05:58:40;;;;;;;6.40;5.30;;;;;;;;;;4945998;29;20195;-70
2023/06/15 06:01:45;;;;;;;9.23;5.20;;;;;;;;;;4925904;29;20710;-70
2023/06/15 06:04:49;;;;;;;9.93;5.00;;;;;;;;;;4950136;29;20643;-70
2023/06/15 06:07:53;;;;;;;6.50;4.90;;;;;;;;;;4949875;29;20176;-70
2023/06/15 06:10:57;;;;;;;6.67;5.30;;;;;;;;;;4949642;29;20227;-70
2023/06/15 06:14:06;;;;;;;7.10;4.57;;;;;;;;;;4949974;29;20180;-70
2023/06/15 06:17:10;;;;;;;7.13;4.47;;;;;;;;;;4940016;29;20188;-70
2023/06/15 06:20:14;;;;;;;13.10;5.13;;;;;;;;;;4949783;29;20181;-70
2023/06/15 06:23:19;;;;;;;10.57;5.00;;;;;;;;;;4949867;29;20191;-70
2023/06/15 06:26:23;;;;;;;7.90;4.83;;;;;;;;;;4949506;29;20212;-70
2023/06/15 06:29:27;;;;;;;6.57;5.10;;;;;;;;;;4939208;29;20184;-70
2023/06/15 06:32:31;;;;;;;10.67;5.13;;;;;;;;;;4949412;29;20220;-70
2023/06/15 06:35:35;;;;;;;12.50;5.73;;;;;;;;;;4949518;29;20189;-70
2023/06/15 06:38:39;;;;;;;6.90;5.53;;;;;;;;;;4949541;29;20180;-70
2023/06/15 06:41:45;;;;;;;7.57;5.13;;;;;;;;;;4949171;29;20572;-70
2023/06/15 06:44:50;;;;;;;32.97;7.40;;;;;;;;;;4938139;29;20200;-70
2023/06/15 06:47:54;;;;;;;6.80;4.17;;;;;;;;;;4938899;29;20195;-70
2023/06/15 06:50:58;;;;;;;6.43;4.90;;;;;;;;;;4949000;29;20224;-70
2023/06/15 06:54:02;;;;;;;5.03;4.43;;;;;;;;;;4938360;29;20188;-70
2023/06/15 06:57:06;;;;;;;7.93;4.80;;;;;;;;;;4949313;29;20196;-70
2023/06/15 07:00:11;;;;;;;5.77;3.63;;;;;;;;;;4938966;29;20180;-70
2023/06/15 07:03:15;;;;;;;4.20;3.80;;;;;;;;;;4949221;29;20188;-70
2023/06/15 07:06:19;;;;;;;6.73;4.23;;;;;;;;;;4938630;29;20208;-70
2023/06/15 07:09:23;;;;;;;6.80;4.10;;;;;;;;;;4938611;29;20219;-71
2023/06/15 07:12:27;;;;;;;8.57;4.17;;;;;;;;;;4937978;29;20220;-71
2023/06/15 07:15:31;;;;;;;5.80;3.73;;;;;;;;;;4938782;29;20181;-70
2023/06/15 07:18:35;;;;;;;16.13;5.07;;;;;;;;;;4938952;29;20184;-70
2023/06/15 07:21:39;;;;;;;4.63;3.90;;;;;;;;;;4938356;29;20223;-70
2023/06/15 07:24:43;;;;;;;4.57;3.80;;;;;;;;;;4948504;29;20203;-70
2023/06/15 07:27:47;;;;;;;108.80;15.37;;;;;;;;;;4938125;29;20220;-71
2023/06/15 07:30:52;;;;;;;5.70;4.00;;;;;;;;;;4938205;29;20721;-71
2023/06/15 07:33:56;;;;;;;9.80;4.53;;;;;;;;;;4938378;29;20184;-70
2023/06/15 07:37:00;;;;;;;11.43;4.43;;;;;;;;;;4938085;29;20181;-70
2023/06/15 07:40:06;;;;;;;7.73;3.50;;;;;;;;;;4948663;29;20197;-71
2023/06/15 07:43:10;;;;;;;3.70;3.40;;;;;;;;;;4937947;29;20537;-70
2023/06/15 07:46:14;;;;;;;8.27;3.60;;;;;;;;;;4938534;29;20685;-70
2023/06/15 07:49:18;;;;;;;7.27;4.00;;;;;;;;;;4938141;29;20189;-70
2023/06/15 07:52:23;;;;;;;5.73;4.37;;;;;;;;;;4937738;29;20347;-70
2023/06/15 07:55:27;;;;;;;8.93;3.73;;;;;;;;;;4948215;29;20659;-70
2023/06/15 07:58:31;;;;;;;4.33;3.43;;;;;;;;;;4937723;29;20184;-70
2023/06/15 08:01:36;;;;;;;5.77;3.70;;;;;;;;;;4937534;29;20219;-70
2023/06/15 08:04:40;;;;;;;50.50;9.90;;;;;;;;;;4948112;29;20186;-71
2023/06/15 08:07:44;;;;;;;10.47;3.43;;;;;;;;;;4937632;29;20208;-71
2023/06/15 08:10:48;;;;;;;3.38;3.08;;;;;;;;;;4937287;29;20227;-70
2023/06/15 08:13:52;;;;;;;8.07;3.10;;;;;;;;;;4947867;29;20516;-70
2023/06/15 08:16:56;;;;;;;3.67;2.83;;;;;;;;;;4937618;29;20520;-69
2023/06/15 08:20:05;;;;;;;25.73;4.93;;;;;;;;;;4937269;29;20194;-71
2023/06/15 08:23:10;;;;;;;4.28;2.90;;;;;;;;;;4937417;29;20209;-70
2023/06/15 08:26:14;;;;;;;4.15;3.15;;;;;;;;;;4936326;29;20222;-70
2023/06/15 08:29:18;;;;;;;4.38;2.90;;;;;;;;;;4937075;29;20190;-70
2023/06/15 08:32:23;;;;;;;3.30;2.60;;;;;;;;;;4936240;29;20218;-70
2023/06/15 08:35:27;;;;;;;6.10;3.45;;;;;;;;;;4937186;29;20178;-70
2023/06/15 08:38:31;;;;;;;3.30;3.00;;;;;;;;;;4937208;29;20634;-70
2023/06/15 08:41:39;;;;;;;8.48;3.13;;;;;;;;;;4947354;29;20212;-70
2023/06/15 08:44:46;;;;;;;4.13;2.58;;;;;;;;;;4947154;29;20526;-70
2023/06/15 08:47:54;;;;;;;3.20;2.60;;;;;;;;;;4936757;29;20214;-70
2023/06/15 08:50:58;;;;;;;4.90;2.70;;;;;;;;;;4936822;29;20228;-70
2023/06/15 08:54:04;;;;;;;6.60;3.00;;;;;;;;;;4936977;29;20635;-70
2023/06/15 08:57:08;;;;;;;6.45;3.30;;;;;;;;;;4936115;29;20181;-70
2023/06/15 09:00:13;;;;;;;18.52;3.97;;;;;;;;;;4947043;29;20196;-70
2023/06/15 09:03:18;;;;;;;3.72;3.25;;;;;;;;;;4936775;29;20541;-70
2023/06/15 09:06:23;;;;;;;4.07;2.95;;;;;;;;;;4946641;29;20211;-70
2023/06/15 09:09:27;;;;;;;4.20;2.92;;;;;;;;;;4936306;29;20210;-70
2023/06/15 09:12:31;;;;;;;4.35;3.03;;;;;;;;;;4936282;29;20218;-70
2023/06/15 09:15:36;;;;;;;4.82;2.97;;;;;;;;;;4936320;29;20191;-70
2023/06/15 09:18:45;;;;;;;5.57;3.10;;;;;;;;;;4936577;29;20184;-70
2023/06/15 09:21:51;;;;;;;4.95;3.38;;;;;;;;;;4946349;29;20218;-70
2023/06/15 09:24:55;;;;;;;5.80;3.40;;;;;;;;;;4936437;29;20632;-70
2023/06/15 09:28:02;;;;;;;5.95;2.75;;;;;;;;;;4936086;29;20218;-70
2023/06/15 09:31:06;;;;;;;5.50;2.97;;;;;;;;;;4936062;29;20224;-70
2023/06/15 09:34:12;;;;;;;3.45;2.72;;;;;;;;;;4936350;29;20185;-70
2023/06/15 09:37:16;;;;;;;6.65;3.00;;;;;;;;;;4935807;29;20180;-70
2023/06/15 09:40:24;;;;;;;3.75;2.80;;;;;;;;;;4936203;29;20175;-70
2023/06/15 09:43:38;;;;;;;6.03;3.10;;;;;;;;;;4935348;29;20185;-70
2023/06/15 09:46:43;;;;;;;6.28;2.72;;;;;;;;;;4936164;29;20218;-70
2023/06/15 09:49:48;;;;;;;5.93;2.80;;;;;;;;;;4935885;29;20186;-70
2023/06/15 09:52:52;;;;;;;7.10;3.28;;;;;;;;;;4946413;29;20182;-70
2023/06/15 09:55:57;;;;;;;3.88;2.92;;;;;;;;;;4936130;29;20627;-70
2023/06/15 09:59:02;;;;;;;5.78;3.20;;;;;;;;;;4935796;29;20544;-70
2023/06/15 10:02:11;;;;;;;4.55;3.13;;;;;;;;;;4935702;29;20228;-70
2023/06/15 10:05:16;;;;;;;4.90;3.00;;;;;;;;;;4946180;29;20190;-70
2023/06/15 10:08:26;;;;;;;6.35;2.72;;;;;;;;;;4935952;29;20209;-69
2023/06/15 10:11:31;;;;;;;3.53;3.22;;;;;;;;;;4934997;29;20226;-69
2023/06/15 10:14:45;;;;;;;5.28;3.17;;;;;;;;;;4935678;29;20177;-70
2023/06/15 10:17:52;;;;;;;3.55;3.17;;;;;;;;;;4935638;29;20178;-70
2023/06/15 10:20:59;;;;;;;3.67;2.90;;;;;;;;;;4961292;23;20238;-72
2023/06/15 10:24:12;;;;;;;4.93;3.20;;;;;;;;;;4954774;29;20182;-71
2023/06/15 10:27:16;;;;;;;5.13;3.10;;;;;;;;;;4954135;29;20218;-72
2023/06/15 10:30:32;;;;;;;11.70;3.05;;;;;;;;;;4954820;29;20187;-72
2023/06/15 10:33:48;;;;;;;6.18;2.72;;;;;;;;;;4954810;29;20208;-72
2023/06/15 10:37:03;;;;;;;3.53;2.50;;;;;;;;;;4954387;29;20196;-72
2023/06/15 10:40:16;;;;;;;9.05;2.72;;;;;;;;;;4954273;29;20200;-72
2023/06/15 10:43:21;;;;;;;5.45;2.60;;;;;;;;;;4953824;29;20195;-72
2023/06/15 10:46:28;;;;;;;4.20;3.00;;;;;;;;;;4942620;29;20529;-72
2023/06/15 10:49:32;;;;;;;6.72;2.90;;;;;;;;;;4957488;29;20631;-72
2023/06/15 10:52:36;;;;;;;3.15;2.80;;;;;;;;;;4957417;29;20691;-72
2023/06/15 10:55:44;;;;;;;3.90;2.75;;;;;;;;;;4957322;29;20643;-72
2023/06/15 10:58:57;;;;;;;2.83;2.60;;;;;;;;;;4957129;29;20192;-72
2023/06/15 11:02:02;;;;;;;8.15;2.90;;;;;;;;;;4958356;29;20219;-72
2023/06/15 11:05:10;;;;;;;7.88;3.05;;;;;;;;;;4958071;29;20520;-72
2023/06/15 11:08:17;;;;;;;5.53;2.83;;;;;;;;;;4958237;29;20214;-72
2023/06/15 11:11:31;;;;;;;5.55;3.17;;;;;;;;;;4957621;29;20571;-72
2023/06/15 11:14:36;;;;;;;2.63;2.42;;;;;;;;;;4957784;29;20189;-71
2023/06/15 11:17:53;;;;;;;3.70;2.88;;;;;;;;;;4957679;29;20518;-73
2023/06/15 11:20:59;;;;;;;3.80;2.63;;;;;;;;;;4957500;29;20236;-72
2023/06/15 11:24:03;;;;;;;3.50;2.80;;;;;;;;;;4945762;29;20183;-71
2023/06/15 11:27:09;;;;;;;5.68;3.30;;;;;;;;;;4956909;29;20217;-72
2023/06/15 11:30:14;;;;;;;2.78;2.53;;;;;;;;;;4957384;29;20187;-72
2023/06/15 11:33:36;;;;;;;7.32;2.70;;;;;;;;;;4957426;29;20198;-72
2023/06/15 11:36:40;;;;;;;3.35;2.47;;;;;;;;;;4967820;28;20190;-72
2023/06/15 11:39:45;;;;;;;4.68;2.90;;;;;;;;;;4956756;29;20186;-73
2023/06/15 11:42:50;;;;;;;7.30;3.28;;;;;;;;;;4957453;29;20523;-73
2023/06/15 11:45:54;;;;;;;4.18;2.95;;;;;;;;;;4957521;29;20195;-73
2023/06/15 11:48:58;;;;;;;3.38;2.63;;;;;;;;;;4956271;29;20571;-73
2023/06/15 11:52:04;;;;;;;4.07;2.58;;;;;;;;;;4957017;29;20223;-72
2023/06/15 11:55:09;;;;;;;4.32;2.28;;;;;;;;;;4956261;29;20191;-73
2023/06/15 11:58:14;;;;;;;5.03;2.65;;;;;;;;;;4957244;29;20514;-73
2023/06/15 12:01:18;;;;;;;11.95;3.08;;;;;;;;;;4956951;29;20717;-73
2023/06/15 12:04:30;;;;;;;4.40;2.90;;;;;;;;;;4957171;28;20727;-72
2023/06/15 12:07:35;;;;;;;3.28;2.40;;;;;;;;;;4957271;29;20215;-72
2023/06/15 12:10:42;;;;;;;3.63;3.33;;;;;;;;;;4956322;29;20554;-72
2023/06/15 12:13:46;;;;;;;3.22;2.40;;;;;;;;;;4956612;29;20200;-72
2023/06/15 12:16:52;;;;;;;4.78;2.63;;;;;;;;;;4956629;29;20203;-73
2023/06/15 12:20:11;;;;;;;3.15;2.70;;;;;;;;;;4956464;29;20635;-73
2023/06/15 12:23:48;;;;;;;5.00;2.17;;;;;;;;;;4956456;29;20184;-73
2023/06/15 12:26:54;;;;;;;4.40;2.75;;;;;;;;;;4956758;29;20180;-73
2023/06/15 12:30:13;;;;;;;5.28;2.65;;;;;;;;;;4956599;29;20195;-73
2023/06/15 12:33:27;;;;;;;5.70;2.78;;;;;;;;;;4956340;29;20184;-72
2023/06/15 12:36:31;;;;;;;5.82;2.80;;;;;;;;;;4955505;29;20184;-73
2023/06/15 12:39:35;;;;;;;3.92;2.50;;;;;;;;;;4955897;29;20180;-73
2023/06/15 12:42:40;;;;;;;4.43;2.47;;;;;;;;;;4956003;29;20184;-73
2023/06/15 12:45:44;;;;;;;6.85;2.83;;;;;;;;;;4956136;29;20176;-73
2023/06/15 12:48:48;;;;;;;2.92;2.63;;;;;;;;;;4944412;29;20211;-73
2023/06/15 12:51:52;;;;;;;3.97;2.72;;;;;;;;;;4955800;29;20220;-72
2023/06/15 12:54:56;;;;;;;3.75;2.60;;;;;;;;;;4955945;29;20188;-73
2023/06/15 12:58:00;;;;;;;4.63;2.65;;;;;;;;;;4944367;29;20524;-73
2023/06/15 13:01:04;;;;;;;4.53;2.90;;;;;;;;;;4956403;29;20216;-73
2023/06/15 13:04:08;;;;;;;6.57;3.08;;;;;;;;;;4956670;29;20523;-73
2023/06/15 13:07:13;;;;;;;3.05;2.80;;;;;;;;;;4955709;29;20187;-73
2023/06/15 13:10:17;;;;;;;3.45;2.92;;;;;;;;;;4955687;28;20176;-73
2023/06/15 13:13:22;;;;;;;3.63;2.78;;;;;;;;;;4955898;29;20630;-73
2023/06/15 13:16:26;;;;;;;3.58;2.55;;;;;;;;;;4956117;29;20199;-73
2023/06/15 13:19:30;;;;;;;4.03;2.80;;;;;;;;;;4955509;29;20180;-73
2023/06/15 13:22:35;;;;;;;4.35;3.10;;;;;;;;;;4954694;29;20228;-73
2023/06/15 13:25:39;;;;;;;4.47;2.83;;;;;;;;;;4955743;29;20191;-73
2023/06/15 13:28:43;;;;;;;4.15;2.75;;;;;;;;;;4956046;29;20564;-73
2023/06/15 13:31:47;;;;;;;6.95;3.42;;;;;;;;;;4954946;29;20222;-73
2023/06/15 13:34:51;;;;;;;5.55;2.85;;;;;;;;;;4956267;29;20203;-73
2023/06/15 13:37:58;;;;;;;7.72;2.45;;;;;;;;;;4955737;29;20634;-73
2023/06/15 13:41:02;;;;;;;3.33;2.80;;;;;;;;;;4955490;29;20218;-73
2023/06/15 13:44:06;;;;;;;5.45;2.90;;;;;;;;;;4955369;29;20203;-73
2023/06/15 13:47:14;;;;;;;31.80;4.38;;;;;;;;;;4955333;29;20188;-73
2023/06/15 13:50:19;;;;;;;3.78;2.95;;;;;;;;;;4954082;29;20198;-73
2023/06/15 13:53:23;;;;;;;3.80;2.92;;;;;;;;;;4955286;29;20182;-73
2023/06/15 13:56:28;;;;;;;4.47;3.00;;;;;;;;;;4955679;29;20198;-73
2023/06/15 13:59:34;;;;;;;6.70;2.97;;;;;;;;;;4956944;29;20282;-73
2023/06/15 14:02:40;;;;;;;3.47;2.80;;;;;;;;;;4957327;29;20516;-73
2023/06/15 14:05:45;;;;;;;8.05;3.08;;;;;;;;;;4956675;29;20184;-72
2023/06/15 14:08:49;;;;;;;6.63;3.03;;;;;;;;;;4955895;29;20665;-72
2023/06/15 14:11:58;;;;;;;2.88;2.67;;;;;;;;;;4956254;29;20221;-73
2023/06/15 14:15:06;;;;;;;3.42;2.70;;;;;;;;;;4955353;29;20179;-73
2023/06/15 14:18:10;;;;;;;3.83;2.65;;;;;;;;;;4954746;29;20178;-73
2023/06/15 14:21:14;;;;;;;10.85;3.17;;;;;;;;;;4954658;29;20227;-73
2023/06/15 14:24:19;;;;;;;6.97;2.83;;;;;;;;;;4957746;29;20582;-73
2023/06/15 14:27:23;;;;;;;3.85;2.70;;;;;;;;;;4958810;29;20615;-72
2023/06/15 14:30:28;;;;;;;4.38;2.60;;;;;;;;;;4957682;29;20520;-72
2023/06/15 14:33:32;;;;;;;3.65;2.65;;;;;;;;;;4958726;29;20188;-72
2023/06/15 14:36:36;;;;;;;3.30;2.70;;;;;;;;;;4957656;29;20180;-72
2023/06/15 14:39:41;;;;;;;4.03;2.80;;;;;;;;;;4957763;29;20180;-72
2023/06/15 14:42:50;;;;;;;6.68;2.75;;;;;;;;;;4958261;29;20184;-72
2023/06/15 14:45:54;;;;;;;5.35;2.75;;;;;;;;;;4946944;29;20180;-72
2023/06/15 14:48:58;;;;;;;5.65;2.80;;;;;;;;;;4958346;29;20543;-72
2023/06/15 14:52:02;;;;;;;2.70;2.50;;;;;;;;;;4968556;28;20219;-72
2023/06/15 14:55:07;;;;;;;3.33;2.70;;;;;;;;;;4958387;29;20180;-72
2023/06/15 14:58:11;;;;;;;3.63;2.63;;;;;;;;;;4957992;29;20176;-72
2023/06/15 15:01:15;;;;;;;3.47;2.90;;;;;;;;;;4957155;29;20223;-72
2023/06/15 15:04:19;;;;;;;4.03;3.00;;;;;;;;;;4958411;29;20624;-72
2023/06/15 15:07:23;;;;;;;5.68;2.67;;;;;;;;;;4957780;29;20204;-72
2023/06/15 15:10:27;;;;;;;11.93;3.30;;;;;;;;;;4957165;29;20180;-72
2023/06/15 15:13:32;;;;;;;5.38;3.05;;;;;;;;;;4956971;29;20201;-72
2023/06/15 15:16:36;;;;;;;4.53;2.67;;;;;;;;;;4957657;29;20192;-72
2023/06/15 15:19:40;;;;;;;4.93;2.90;;;;;;;;;;4957870;29;20180;-72
2023/06/15 15:22:44;;;;;;;5.22;2.67;;;;;;;;;;4957838;29;20180;-72
2023/06/15 15:25:48;;;;;;;4.03;3.00;;;;;;;;;;4957499;29;20180;-72
2023/06/15 15:28:52;;;;;;;5.63;2.92;;;;;;;;;;4967656;28;20552;-72
2023/06/15 15:31:56;;;;;;;3.05;2.85;;;;;;;;;;4957569;29;20722;-72
2023/06/15 15:35:00;;;;;;;4.75;2.65;;;;;;;;;;4956868;28;20180;-72
2023/06/15 15:38:04;;;;;;;10.38;2.88;;;;;;;;;;4956303;29;20184;-72
2023/06/15 15:41:08;;;;;;;8.63;2.63;;;;;;;;;;4956328;29;20228;-72
2023/06/15 15:44:12;;;;;;;4.30;2.72;;;;;;;;;;4957336;29;20190;-72
2023/06/15 15:47:17;;;;;;;4.28;2.90;;;;;;;;;;4957234;29;20180;-72
2023/06/15 15:50:21;;;;;;;4.22;2.75;;;;;;;;;;4956843;29;20209;-72
2023/06/15 15:53:25;;;;;;;4.03;2.70;;;;;;;;;;4956342;29;20185;-72
2023/06/15 15:56:29;;;;;;;3.65;3.03;;;;;;;;;;4956868;29;20636;-72
2023/06/15 15:59:33;;;;;;;3.97;2.83;;;;;;;;;;4956044;29;20182;-72
2023/06/15 16:02:38;;;;;;;3.40;3.10;;;;;;;;;;4956592;29;20226;-72
2023/06/15 16:05:42;;;;;;;4.50;2.90;;;;;;;;;;4956777;29;20534;-72
2023/06/15 16:08:45;;;;;;;3.67;2.80;;;;;;;;;;4956847;29;20218;-72
2023/06/15 16:11:49;;;;;;;2.85;2.65;;;;;;;;;;4956239;28;20546;-72
2023/06/15 16:14:54;;;;;;;4.22;2.67;;;;;;;;;;4975806;28;20185;-71
2023/06/15 16:17:58;;;;;;;5.40;2.92;;;;;;;;;;4976065;28;20196;-72
2023/06/15 16:21:02;;;;;;;12.90;4.70;;;;;;;;;;4988533;23;20214;-70
2023/06/15 16:24:06;;;;;;;4.38;2.95;;;;;;;;;;4937614;29;20200;-70
2023/06/15 16:27:10;;;;;;;5.10;3.00;;;;;;;;;;4937122;29;20184;-70
2023/06/15 16:30:15;;;;;;;3.78;3.17;;;;;;;;;;4936931;29;20207;-70
2023/06/15 16:33:19;;;;;;;3.60;2.90;;;;;;;;;;4936991;29;20188;-70
2023/06/15 16:36:23;;;;;;;2.92;2.67;;;;;;;;;;4936902;29;20193;-70
2023/06/15 16:39:50;;;;;;;4.10;2.50;;;;;;;;;;4936865;29;20187;-70
2023/06/15 16:42:54;;;;;;;7.10;3.07;;;;;;;;;;4936781;29;20572;-70
2023/06/15 16:45:58;;;;;;;6.83;3.23;;;;;;;;;;4936945;29;20180;-70
2023/06/15 16:49:02;;;;;;;3.60;3.30;;;;;;;;;;4936614;29;20207;-70
2023/06/15 16:52:08;;;;;;;6.00;3.33;;;;;;;;;;4935738;29;20226;-70
2023/06/15 16:55:13;;;;;;;3.17;2.87;;;;;;;;;;4935809;29;20200;-70
2023/06/15 16:58:18;;;;;;;3.67;3.27;;;;;;;;;;4936760;29;20205;-70
2023/06/15 17:01:22;;;;;;;4.53;3.07;;;;;;;;;;4936596;29;20554;-70
2023/06/15 17:04:26;;;;;;;4.93;3.10;;;;;;;;;;4937223;29;20191;-70
2023/06/15 17:07:30;;;;;;;4.23;3.23;;;;;;;;;;4936391;29;20180;-70
2023/06/15 17:10:34;;;;;;;4.13;3.37;;;;;;;;;;4936428;29;20228;-70
2023/06/15 17:13:38;;;;;;;8.10;3.10;;;;;;;;;;4936466;29;20188;-70
2023/06/15 17:16:43;;;;;;;3.77;3.07;;;;;;;;;;4936154;29;20201;-70
2023/06/15 17:19:47;;;;;;;4.07;3.20;;;;;;;;;;4936372;29;20196;-70
2023/06/15 17:22:51;;;;;;;6.33;2.80;;;;;;;;;;4935330;29;20207;-70
2023/06/15 17:25:56;;;;;;;4.23;2.93;;;;;;;;;;4936096;29;20544;-70
2023/06/15 17:29:01;;;;;;;3.73;3.13;;;;;;;;;;4935179;29;20230;-70
2023/06/15 17:32:06;;;;;;;5.80;3.40;;;;;;;;;;4936028;29;20220;-70
2023/06/15 17:35:10;;;;;;;8.00;3.20;;;;;;;;;;4935934;29;20191;-70
2023/06/15 17:38:14;;;;;;;7.10;3.47;;;;;;;;;;4936189;29;20187;-70
2023/06/15 17:41:19;;;;;;;5.43;3.40;;;;;;;;;;4935620;29;20212;-70
2023/06/15 17:44:23;;;;;;;4.75;3.55;;;;;;;;;;4934860;29;20694;-70
2023/06/15 17:47:27;;;;;;;3.70;3.00;;;;;;;;;;4935615;29;21038;-70
2023/06/15 17:50:31;;;;;;;3.33;2.90;;;;;;;;;;4935493;29;20757;-70
2023/06/15 17:53:42;;;;;;;6.80;3.33;;;;;;;;;;4935716;29;20619;-70
2023/06/15 17:56:46;;;;;;;6.40;2.83;;;;;;;;;;4937212;29;20190;-70
2023/06/15 17:59:52;;;;;;;6.10;3.30;;;;;;;;;;4942153;29;20193;-70
2023/06/15 18:02:57;;;;;;;3.47;3.17;;;;;;;;;;4942071;29;20553;-70
2023/06/15 18:06:01;;;;;;;8.20;4.03;;;;;;;;;;4941256;29;20531;-70
2023/06/15 18:09:06;;;;;;;10.57;3.37;;;;;;;;;;4942291;29;20186;-70
2023/06/15 18:12:13;;;;;;;4.00;3.20;;;;;;;;;;4941930;29;20232;-70
2023/06/15 18:15:17;;;;;;;6.80;3.20;;;;;;;;;;4941170;29;20186;-70
2023/06/15 18:18:22;;;;;;;3.73;3.33;;;;;;;;;;4942018;29;20635;-71
2023/06/15 18:21:27;;;;;;;4.87;3.47;;;;;;;;;;4952063;29;20228;-71
2023/06/15 18:24:31;;;;;;;6.33;3.43;;;;;;;;;;4942025;29;20184;-71
2023/06/15 18:27:35;;;;;;;9.30;3.10;;;;;;;;;;4941206;29;20181;-71
2023/06/15 18:30:40;;;;;;;4.63;3.63;;;;;;;;;;4941793;29;20575;-71
2023/06/15 18:33:45;;;;;;;3.87;3.43;;;;;;;;;;4942172;29;20208;-71
2023/06/15 18:36:49;;;;;;;4.60;3.30;;;;;;;;;;4941938;29;20184;-71
2023/06/15 18:39:56;;;;;;;6.50;3.67;;;;;;;;;;4941858;29;20532;-71
2023/06/15 18:43:00;;;;;;;4.80;3.23;;;;;;;;;;4941292;29;20184;-71
2023/06/15 18:46:04;;;;;;;4.47;3.40;;;;;;;;;;4941034;29;20180;-70
2023/06/15 18:49:10;;;;;;;4.90;3.80;;;;;;;;;;4940926;29;20647;-71
2023/06/15 18:52:15;;;;;;;6.07;3.47;;;;;;;;;;4942075;29;20219;-71
2023/06/15 18:55:19;;;;;;;4.67;3.33;;;;;;;;;;4941968;29;20184;-71
2023/06/15 18:58:23;;;;;;;6.87;3.60;;;;;;;;;;4940951;29;20180;-71
2023/06/15 19:01:27;;;;;;;3.97;3.27;;;;;;;;;;4941630;29;20216;-71
2023/06/15 19:04:32;;;;;;;4.97;2.77;;;;;;;;;;4941669;29;20180;-71
2023/06/15 19:07:36;;;;;;;4.50;3.23;;;;;;;;;;4940896;29;20180;-71
2023/06/15 19:10:40;;;;;;;7.93;3.03;;;;;;;;;;4926745;29;20223;-71
2023/06/15 19:13:44;;;;;;;4.13;3.03;;;;;;;;;;4938855;29;20652;-71